F/V Le Natif 2 — FKVW — position and weather

sailwx.info

Track history (hours):
 
Tides and Currents Weather Stations Pressure Air Temp Water Temp Dewpoint Dewpoint Depression Visibility Wind Speed Wind Dir Waves Ship Positions

F/V Le Natif 2

Last reported at 2015-Sep-01 15:12 UTC. Time now 2015-Sep-02 02:28 UTC.
Position N 46°42' W 001°57'.

Length 16 m.

Type: Fishing. MMSI: 228131600.

Date/timePositionNaut miles runAvg speedWind from/ knotsBaromVisibWave heightAir tempDewpointWater temp
2015-Sep-01 15:12N 46°42' W 001°57'0 0.1
2015-Sep-01 14:33N 46°42' W 001°57'0 0.0
2015-Sep-01 13:33N 46°42' W 001°57'2 2.3
2015-Sep-01 12:33N 46°40' W 001°59'9 8.5
2015-Sep-01 11:32N 46°37' W 002°10'4 2.8
2015-Sep-01 10:05N 46°35' W 002°16'1 0.5
2015-Sep-01 08:31N 46°35' W 002°17'3 3.0
2015-Sep-01 07:32N 46°33' W 002°14'2 1.7
2015-Sep-01 06:06N 46°34' W 002°11'2 2.9
2015-Sep-01 05:33N 46°33' W 002°09'1 1.4
2015-Sep-01 04:33N 46°34' W 002°08'8 7.8
2015-Sep-01 03:33N 46°40' W 001°60'3 0.2
2015-Aug-31 13:33N 46°42' W 001°56'0 0.0
2015-Aug-31 12:33N 46°42' W 001°56'1 1.0
2015-Aug-31 11:32N 46°41' W 001°58'6 6.4
2015-Aug-31 10:33N 46°37' W 002°05'8 7.8
2015-Aug-31 09:33N 46°32' W 002°14'1 0.5
2015-Aug-31 06:33N 46°32' W 002°12'1 1.4
2015-Aug-31 05:31N 46°32' W 002°10'5 5.1
2015-Aug-31 04:33N 46°36' W 002°04'8 8.1
2015-Aug-31 03:33N 46°42' W 001°56'0 0.0
2015-Aug-30 16:34N 46°42' W 001°57'0 0.0
2015-Aug-30 15:33N 46°42' W 001°57'0 0.0
2015-Aug-30 14:33N 46°42' W 001°57'4 4.1
2015-Aug-30 13:33N 46°38' W 002°00'10 9.8
2015-Aug-30 12:34N 46°31' W 002°09'4 4.5
2015-Aug-30 11:33N 46°27' W 002°12'4 4.1
2015-Aug-30 10:33N 46°27' W 002°18'3 2.8
2015-Aug-30 09:32N 46°28' W 002°14'1 0.6
2015-Aug-30 08:33N 46°28' W 002°14'1 1.1
2015-Aug-30 07:33N 46°28' W 002°13'1 0.9
2015-Aug-30 06:33N 46°28' W 002°12'4 3.5
2015-Aug-30 05:34N 46°31' W 002°11'6 5.6
2015-Aug-30 04:34N 46°35' W 002°04'9 8.6
2015-Aug-30 03:32N 46°42' W 001°56'0 0.0
2015-Aug-28 05:09N 46°42' W 001°56'0 0.0
2015-Aug-28 04:16N 46°42' W 001°56'0 0.1
2015-Aug-28 03:33N 46°42' W 001°56'8 7.5
2015-Aug-28 02:33N 46°34' W 001°58'9 8.6
2015-Aug-28 01:33N 46°26' W 001°57'9 8.8
2015-Aug-28 00:32N 46°17' W 001°57'16 1.3
2015-Aug-27 12:19N 46°29' W 002°12'6 8.3
2015-Aug-27 11:33N 46°34' W 002°06'8 8.3
2015-Aug-27 10:33N 46°40' W 001°58'2 1.4
2015-Aug-27 09:19N 46°42' W 001°57'0 0.0
2015-Aug-27 08:29N 46°42' W 001°57'5 4.9
2015-Aug-27 07:33N 46°37' W 001°59'6 6.3
2015-Aug-27 06:33N 46°31' W 002°00'6 6.1
2015-Aug-27 05:33N 46°25' W 002°02'6 5.9
2015-Aug-27 04:33N 46°19' W 002°02'23 1.4
2015-Aug-26 12:33N 46°33' W 002°29'10 4.9
2015-Aug-26 10:30N 46°35' W 002°15'8 8.0
2015-Aug-26 09:33N 46°38' W 002°05'  
Track history (hours):
 
Tides and Currents Weather Stations Pressure Air Temp Water Temp Dewpoint Dewpoint Depression Visibility Wind Speed Wind Dir Waves Ship Positions

F/V Le Natif 2

Last reported at 2015-Sep-01 15:12 UTC. Time now 2015-Sep-02 02:28 UTC.
Position N 46°42' W 001°57'.

Length 16 m.

Type: Fishing. MMSI: 228131600.

Date/timePositionNaut miles runAvg speedWind from/ knotsBaromVisibWave heightAir tempDewpointWater temp
2015-Sep-01 15:12N 46°42' W 001°57'0 0.1
2015-Sep-01 14:33N 46°42' W 001°57'0 0.0
2015-Sep-01 13:33N 46°42' W 001°57'2 2.3
2015-Sep-01 12:33N 46°40' W 001°59'9 8.5
2015-Sep-01 11:32N 46°37' W 002°10'4 2.8
2015-Sep-01 10:05N 46°35' W 002°16'1 0.5
2015-Sep-01 08:31N 46°35' W 002°17'3 3.0
2015-Sep-01 07:32N 46°33' W 002°14'2 1.7
2015-Sep-01 06:06N 46°34' W 002°11'2 2.9
2015-Sep-01 05:33N 46°33' W 002°09'1 1.4
2015-Sep-01 04:33N 46°34' W 002°08'8 7.8
2015-Sep-01 03:33N 46°40' W 001°60'3 0.2
2015-Aug-31 13:33N 46°42' W 001°56'0 0.0
2015-Aug-31 12:33N 46°42' W 001°56'1 1.0
2015-Aug-31 11:32N 46°41' W 001°58'6 6.4
2015-Aug-31 10:33N 46°37' W 002°05'8 7.8
2015-Aug-31 09:33N 46°32' W 002°14'1 0.5
2015-Aug-31 06:33N 46°32' W 002°12'1 1.4
2015-Aug-31 05:31N 46°32' W 002°10'5 5.1
2015-Aug-31 04:33N 46°36' W 002°04'8 8.1
2015-Aug-31 03:33N 46°42' W 001°56'0 0.0
2015-Aug-30 16:34N 46°42' W 001°57'0 0.0
2015-Aug-30 15:33N 46°42' W 001°57'0 0.0
2015-Aug-30 14:33N 46°42' W 001°57'4 4.1
2015-Aug-30 13:33N 46°38' W 002°00'10 9.8
2015-Aug-30 12:34N 46°31' W 002°09'4 4.5
2015-Aug-30 11:33N 46°27' W 002°12'4 4.1
2015-Aug-30 10:33N 46°27' W 002°18'3 2.8
2015-Aug-30 09:32N 46°28' W 002°14'1 0.6
2015-Aug-30 08:33N 46°28' W 002°14'1 1.1
2015-Aug-30 07:33N 46°28' W 002°13'1 0.9
2015-Aug-30 06:33N 46°28' W 002°12'4 3.5
2015-Aug-30 05:34N 46°31' W 002°11'6 5.6
2015-Aug-30 04:34N 46°35' W 002°04'9 8.6
2015-Aug-30 03:32N 46°42' W 001°56'0 0.0
2015-Aug-28 05:09N 46°42' W 001°56'0 0.0
2015-Aug-28 04:16N 46°42' W 001°56'0 0.1
2015-Aug-28 03:33N 46°42' W 001°56'8 7.5
2015-Aug-28 02:33N 46°34' W 001°58'9 8.6
2015-Aug-28 01:33N 46°26' W 001°57'9 8.8
2015-Aug-28 00:32N 46°17' W 001°57'16 1.3
2015-Aug-27 12:19N 46°29' W 002°12'6 8.3
2015-Aug-27 11:33N 46°34' W 002°06'8 8.3
2015-Aug-27 10:33N 46°40' W 001°58'2 1.4
2015-Aug-27 09:19N 46°42' W 001°57'0 0.0
2015-Aug-27 08:29N 46°42' W 001°57'5 4.9
2015-Aug-27 07:33N 46°37' W 001°59'6 6.3
2015-Aug-27 06:33N 46°31' W 002°00'6 6.1
2015-Aug-27 05:33N 46°25' W 002°02'6 5.9
2015-Aug-27 04:33N 46°19' W 002°02'23 1.4
2015-Aug-26 12:33N 46°33' W 002°29'10 4.9
2015-Aug-26 10:30N 46°35' W 002°15'8 8.0
2015-Aug-26 09:33N 46°38' W 002°05'  

Dump ship's entire track history